Time;durP1;ratioP1;P1;durP2;ratioP2;P2;SDS_P1;SDS_P2;PMS_P1;PMS_P2;Temp;Humidity;BMP_temperature;BMP_pressure;BME280_temperature;BME280_humidity;BME280_pressure;Samples;Min_cycle;Max_cycle;Signal;HPM_P1;HPM_P2
2023/04/21 00:01:33;;;;;;;15.13;9.77;;;;;;;;;;5023328;28;20221;-87
2023/04/21 00:03:59;;;;;;;12.03;9.77;;;;;;;;;;5036861;28;20211;-87
2023/04/21 00:06:25;;;;;;;12.23;10.03;;;;;;;;;;5029457;28;20230;-87
2023/04/21 00:08:53;;;;;;;12.63;9.53;;;;;;;;;;5018212;28;20305;-87
2023/04/21 00:11:19;;;;;;;10.37;9.27;;;;;;;;;;5018907;28;20357;-87
2023/04/21 00:13:46;;;;;;;14.03;10.03;;;;;;;;;;5037560;28;20234;-86
2023/04/21 00:16:12;;;;;;;13.10;9.73;;;;;;;;;;5003928;28;20262;-86
2023/04/21 00:18:40;;;;;;;11.33;9.93;;;;;;;;;;5020939;28;20220;-85
2023/04/21 00:21:05;;;;;;;12.63;9.70;;;;;;;;;;5034346;28;20306;-85
2023/04/21 00:23:33;;;;;;;12.20;9.90;;;;;;;;;;5003890;28;20225;-86
2023/04/21 00:26:01;;;;;;;15.77;10.13;;;;;;;;;;5015062;28;20582;-86
2023/04/21 00:28:27;;;;;;;14.30;10.13;;;;;;;;;;5038821;28;20714;-86
2023/04/21 00:30:53;;;;;;;12.93;9.10;;;;;;;;;;5005519;28;20324;-86
2023/04/21 00:33:18;;;;;;;11.93;9.43;;;;;;;;;;5022281;28;20218;-87
2023/04/21 00:35:44;;;;;;;12.57;9.67;;;;;;;;;;5034869;28;20211;-86
2023/04/21 00:38:10;;;;;;;10.93;9.67;;;;;;;;;;5006845;28;20234;-87
2023/04/21 00:40:35;;;;;;;11.57;8.90;;;;;;;;;;5053202;28;20229;-87
2023/04/21 00:43:06;;;;;;;10.23;9.13;;;;;;;;;;5043953;28;20223;-85
2023/04/21 00:45:34;;;;;;;13.67;9.37;;;;;;;;;;5027741;28;20234;-87
2023/04/21 00:48:00;;;;;;;15.23;9.43;;;;;;;;;;5050332;28;20218;-87
2023/04/21 00:50:28;;;;;;;13.53;9.57;;;;;;;;;;5030683;28;20287;-87
2023/04/21 00:52:56;;;;;;;12.50;9.17;;;;;;;;;;5050285;28;20227;-88
2023/04/21 00:55:22;;;;;;;11.30;9.23;;;;;;;;;;5021629;28;20219;-84
2023/04/21 00:57:47;;;;;;;12.53;9.80;;;;;;;;;;5059287;28;20226;-86
2023/04/21 01:00:14;;;;;;;10.77;9.30;;;;;;;;;;5039156;28;20239;-86
2023/04/21 01:02:39;;;;;;;11.70;9.70;;;;;;;;;;5036311;28;20215;-85
2023/04/21 01:05:10;;;;;;;10.80;9.47;;;;;;;;;;5053175;28;20225;-83
2023/04/21 01:07:38;;;;;;;12.47;10.03;;;;;;;;;;5061015;28;20277;-84
2023/04/21 01:10:09;;;;;;;11.23;9.23;;;;;;;;;;5077193;28;20731;-85
2023/04/21 01:12:44;;;;;;;12.83;10.00;;;;;;;;;;5042210;28;20226;-85
2023/04/21 01:15:15;;;;;;;11.03;9.90;;;;;;;;;;5038334;28;20229;-85
2023/04/21 01:17:41;;;;;;;14.50;9.77;;;;;;;;;;5044234;28;20220;-85
2023/04/21 01:20:13;;;;;;;15.73;10.23;;;;;;;;;;5060947;28;20215;-85
2023/04/21 01:22:40;;;;;;;11.87;9.20;;;;;;;;;;5048810;28;20306;-85
2023/04/21 01:25:07;;;;;;;14.57;9.73;;;;;;;;;;5049451;28;20392;-84
2023/04/21 01:27:32;;;;;;;11.23;9.27;;;;;;;;;;5031100;28;20230;-85
2023/04/21 01:29:58;;;;;;;11.27;9.33;;;;;;;;;;5039125;28;20211;-86
2023/04/21 01:32:30;;;;;;;11.90;9.53;;;;;;;;;;5057072;28;20213;-85
2023/04/21 01:34:56;;;;;;;15.07;10.60;;;;;;;;;;5043856;28;20228;-84
2023/04/21 01:37:26;;;;;;;12.23;9.03;;;;;;;;;;5047240;28;20245;-87
2023/04/21 01:39:55;;;;;;;11.63;9.63;;;;;;;;;;5048276;28;20219;-86
2023/04/21 01:42:24;;;;;;;12.57;9.70;;;;;;;;;;5031164;28;20263;-85
2023/04/21 01:44:52;;;;;;;12.50;9.30;;;;;;;;;;5028001;28;20357;-87
2023/04/21 01:47:20;;;;;;;11.23;9.27;;;;;;;;;;5021823;28;20330;-87
2023/04/21 01:49:45;;;;;;;12.73;10.27;;;;;;;;;;5020740;28;20298;-86
2023/04/21 01:52:13;;;;;;;11.20;9.33;;;;;;;;;;5025841;28;20824;-88
2023/04/21 01:54:39;;;;;;;11.30;9.80;;;;;;;;;;5013211;28;20227;-86
2023/04/21 01:57:06;;;;;;;14.07;10.03;;;;;;;;;;5010244;28;20222;-85
2023/04/21 01:59:33;;;;;;;13.27;9.83;;;;;;;;;;5027279;28;20708;-85
2023/04/21 02:02:03;;;;;;;12.97;9.53;;;;;;;;;;5035281;28;20226;-85
2023/04/21 02:04:31;;;;;;;11.83;9.43;;;;;;;;;;5021548;28;20226;-88
2023/04/21 02:06:57;;;;;;;12.00;9.87;;;;;;;;;;5015477;28;20221;-86
2023/04/21 02:09:25;;;;;;;13.73;10.13;;;;;;;;;;5020652;28;20473;-86
2023/04/21 02:11:57;;;;;;;12.87;10.10;;;;;;;;;;5054555;28;20218;-86
2023/04/21 02:14:23;;;;;;;16.07;10.50;;;;;;;;;;5019895;28;25740;-86
2023/04/21 02:16:51;;;;;;;11.53;9.43;;;;;;;;;;5041510;28;20213;-87
2023/04/21 02:19:17;;;;;;;10.60;9.30;;;;;;;;;;5022836;28;20215;-86
2023/04/21 02:21:44;;;;;;;11.23;9.30;;;;;;;;;;5039701;28;20231;-87
2023/04/21 02:24:10;;;;;;;12.17;9.87;;;;;;;;;;5057383;28;20218;-86
2023/04/21 02:26:35;;;;;;;14.83;10.07;;;;;;;;;;5011036;28;20245;-87
2023/04/21 02:29:01;;;;;;;15.07;9.83;;;;;;;;;;5018374;28;20223;-86
2023/04/21 02:31:27;;;;;;;11.23;10.03;;;;;;;;;;5028205;28;20218;-88
2023/04/21 02:33:55;;;;;;;13.33;10.00;;;;;;;;;;5044433;28;20280;-86
2023/04/21 02:36:23;;;;;;;14.70;9.70;;;;;;;;;;5013704;28;20222;-86
2023/04/21 02:38:58;;;;;;;13.13;9.57;;;;;;;;;;5025576;28;21117;-85
2023/04/21 02:41:23;;;;;;;11.50;9.67;;;;;;;;;;5024990;28;20230;-86
2023/04/21 02:43:54;;;;;;;14.53;10.10;;;;;;;;;;5021022;28;20238;-84
2023/04/21 02:46:21;;;;;;;12.73;10.33;;;;;;;;;;5042929;28;20215;-86
2023/04/21 02:48:54;;;;;;;11.23;9.90;;;;;;;;;;5025760;28;21024;-85
2023/04/21 02:51:19;;;;;;;13.20;10.10;;;;;;;;;;5042957;28;20303;-86
2023/04/21 02:53:45;;;;;;;13.57;9.77;;;;;;;;;;5025694;28;20217;-85
2023/04/21 02:56:15;;;;;;;15.73;10.07;;;;;;;;;;5047420;28;20588;-86
2023/04/21 02:58:40;;;;;;;13.50;10.07;;;;;;;;;;5017843;28;20813;-86
2023/04/21 03:01:08;;;;;;;14.13;10.00;;;;;;;;;;5019040;28;20215;-86
2023/04/21 03:03:34;;;;;;;15.53;10.53;;;;;;;;;;5034762;28;20249;-86
2023/04/21 03:06:01;;;;;;;11.27;10.10;;;;;;;;;;5023823;28;20594;-86
2023/04/21 03:08:27;;;;;;;13.43;9.90;;;;;;;;;;5055274;28;20226;-86
2023/04/21 03:10:53;;;;;;;14.73;10.03;;;;;;;;;;5009736;28;20227;-87
2023/04/21 03:13:23;;;;;;;17.57;10.23;;;;;;;;;;5026545;28;20231;-86
2023/04/21 03:15:52;;;;;;;11.80;9.87;;;;;;;;;;5024859;28;20268;-87
2023/04/21 03:18:20;;;;;;;12.40;10.10;;;;;;;;;;5037694;28;20268;-87
2023/04/21 03:20:45;;;;;;;11.63;9.83;;;;;;;;;;5042624;28;20696;-88
2023/04/21 03:23:11;;;;;;;14.03;10.37;;;;;;;;;;5024922;28;20215;-88
2023/04/21 03:25:37;;;;;;;12.43;9.80;;;;;;;;;;5021472;28;20218;-85
2023/04/21 03:28:05;;;;;;;14.30;10.20;;;;;;;;;;5006431;28;20214;-85
2023/04/21 03:30:31;;;;;;;13.77;10.37;;;;;;;;;;5021604;28;20223;-87
2023/04/21 03:32:59;;;;;;;15.90;10.50;;;;;;;;;;5010428;28;20269;-87
2023/04/21 03:35:25;;;;;;;14.87;10.73;;;;;;;;;;5056748;28;20215;-85
2023/04/21 03:37:50;;;;;;;13.40;10.63;;;;;;;;;;5005558;28;20584;-86
2023/04/21 03:40:16;;;;;;;12.93;10.10;;;;;;;;;;5023949;28;20219;-87
2023/04/21 03:42:44;;;;;;;14.23;10.47;;;;;;;;;;5041466;28;20210;-87
2023/04/21 03:45:09;;;;;;;13.90;10.57;;;;;;;;;;5026423;28;20227;-86
2023/04/21 03:47:35;;;;;;;15.37;10.53;;;;;;;;;;5022770;28;20561;-86
2023/04/21 03:50:04;;;;;;;16.43;10.17;;;;;;;;;;5010549;28;20246;-86
2023/04/21 03:52:30;;;;;;;16.93;10.50;;;;;;;;;;5022550;28;20278;-86
2023/04/21 03:54:55;;;;;;;12.97;10.17;;;;;;;;;;5039218;28;20707;-86
2023/04/21 03:57:21;;;;;;;14.63;10.63;;;;;;;;;;5021312;28;20219;-87
2023/04/21 03:59:52;;;;;;;18.07;10.57;;;;;;;;;;5020052;28;20295;-78
2023/04/21 04:02:17;;;;;;;16.47;10.70;;;;;;;;;;5052251;28;20246;-78
2023/04/21 04:04:43;;;;;;;14.87;10.97;;;;;;;;;;5030197;28;20231;-79
2023/04/21 04:07:08;;;;;;;14.67;9.93;;;;;;;;;;5014464;28;20799;-79
2023/04/21 04:09:34;;;;;;;15.20;10.77;;;;;;;;;;5048711;28;20226;-78
2023/04/21 04:12:02;;;;;;;13.83;10.60;;;;;;;;;;5013105;28;20227;-79
2023/04/21 04:14:27;;;;;;;12.90;10.00;;;;;;;;;;5038391;28;20219;-79
2023/04/21 04:16:53;;;;;;;15.10;10.10;;;;;;;;;;5012919;28;20290;-77
2023/04/21 04:19:19;;;;;;;14.93;10.73;;;;;;;;;;5016865;28;20228;-81
2023/04/21 04:21:46;;;;;;;14.93;10.50;;;;;;;;;;5021278;28;20226;-79
2023/04/21 04:24:12;;;;;;;13.87;10.20;;;;;;;;;;5045914;28;20242;-78
2023/04/21 04:26:38;;;;;;;13.37;10.53;;;;;;;;;;5015946;28;20230;-78
2023/04/21 04:29:09;;;;;;;14.37;11.07;;;;;;;;;;5047663;28;20241;-78
2023/04/21 04:31:37;;;;;;;14.10;10.77;;;;;;;;;;5033727;28;21263;-78
2023/04/21 04:34:02;;;;;;;14.30;10.63;;;;;;;;;;5033911;28;21063;-77
2023/04/21 04:36:28;;;;;;;13.33;10.10;;;;;;;;;;5049280;28;20223;-78
2023/04/21 04:38:53;;;;;;;14.77;11.23;;;;;;;;;;5020123;28;20223;-79
2023/04/21 04:41:23;;;;;;;13.63;10.50;;;;;;;;;;5020407;28;20292;-78
2023/04/21 04:43:59;;;;;;;12.03;10.23;;;;;;;;;;5001711;28;20300;-79
2023/04/21 04:46:27;;;;;;;12.77;10.73;;;;;;;;;;5015737;28;20353;-78
2023/04/21 04:49:06;;;;;;;15.87;11.07;;;;;;;;;;5014142;28;20306;-81
2023/04/21 04:51:43;;;;;;;12.10;10.77;;;;;;;;;;5036439;28;20754;-78
2023/04/21 04:54:16;;;;;;;13.70;9.73;;;;;;;;;;5023630;28;20268;-78
2023/04/21 04:56:46;;;;;;;13.03;10.03;;;;;;;;;;5012623;28;20223;-77
2023/04/21 04:59:15;;;;;;;13.27;10.40;;;;;;;;;;5027062;28;20265;-80
2023/04/21 05:01:43;;;;;;;15.67;10.53;;;;;;;;;;5039606;28;20248;-80
2023/04/21 05:04:26;;;;;;;11.63;10.33;;;;;;;;;;5039017;28;20227;-77
2023/04/21 05:06:56;;;;;;;14.07;10.97;;;;;;;;;;5042655;28;20695;-77
2023/04/21 05:09:30;;;;;;;14.67;10.37;;;;;;;;;;5039160;28;20223;-78
2023/04/21 05:11:56;;;;;;;14.93;10.33;;;;;;;;;;5036910;28;20234;-80
2023/04/21 05:14:35;;;;;;;11.70;10.50;;;;;;;;;;5024548;28;20289;-77
2023/04/21 05:17:13;;;;;;;13.40;10.07;;;;;;;;;;5023465;28;20219;-80
2023/04/21 05:19:41;;;;;;;14.90;10.27;;;;;;;;;;5023531;28;20238;-78
2023/04/21 05:22:16;;;;;;;11.73;9.67;;;;;;;;;;5009901;28;20223;-79
2023/04/21 05:24:45;;;;;;;12.90;10.33;;;;;;;;;;5055178;28;20272;-77
2023/04/21 05:27:10;;;;;;;13.13;10.10;;;;;;;;;;5033007;28;20218;-80
2023/04/21 05:29:46;;;;;;;14.17;10.40;;;;;;;;;;5016706;28;20298;-79
2023/04/21 05:32:17;;;;;;;13.20;10.03;;;;;;;;;;4983649;28;20229;-79
2023/04/21 05:34:48;;;;;;;14.37;10.07;;;;;;;;;;5006538;28;20223;-78
2023/04/21 05:37:18;;;;;;;13.73;10.53;;;;;;;;;;5047725;28;20628;-76
2023/04/21 05:39:44;;;;;;;12.47;10.00;;;;;;;;;;5040813;28;20222;-77
2023/04/21 05:42:10;;;;;;;12.20;10.40;;;;;;;;;;5021655;28;20232;-78
2023/04/21 05:44:36;;;;;;;10.70;9.60;;;;;;;;;;5026108;28;20222;-78
2023/04/21 05:47:06;;;;;;;14.23;9.97;;;;;;;;;;5029110;28;20222;-79
2023/04/21 05:49:35;;;;;;;12.07;10.07;;;;;;;;;;5046258;28;20249;-78
2023/04/21 05:52:01;;;;;;;10.97;9.80;;;;;;;;;;5049462;28;20230;-77
2023/04/21 05:54:32;;;;;;;11.77;9.73;;;;;;;;;;5033443;28;20274;-80
2023/04/21 05:57:01;;;;;;;12.37;9.97;;;;;;;;;;5061907;28;20215;-79
2023/04/21 05:59:27;;;;;;;12.77;9.97;;;;;;;;;;5026046;28;20222;-79
2023/04/21 06:01:56;;;;;;;12.00;9.70;;;;;;;;;;5032732;28;20215;-78
2023/04/21 06:04:24;;;;;;;10.47;9.37;;;;;;;;;;5021865;28;20250;-77
2023/04/21 06:06:56;;;;;;;12.80;9.57;;;;;;;;;;5025608;28;20226;-78
2023/04/21 06:09:25;;;;;;;11.83;9.40;;;;;;;;;;5029378;28;20337;-76
2023/04/21 06:11:50;;;;;;;12.07;9.77;;;;;;;;;;5078505;28;20710;-78
2023/04/21 06:14:20;;;;;;;12.10;10.03;;;;;;;;;;5060526;28;20517;-78
2023/04/21 06:16:49;;;;;;;12.87;9.33;;;;;;;;;;5043325;28;20219;-78
2023/04/21 06:19:18;;;;;;;11.27;9.20;;;;;;;;;;5036421;28;20223;-79
2023/04/21 06:21:50;;;;;;;14.63;9.40;;;;;;;;;;5027405;28;20226;-79
2023/04/21 06:24:23;;;;;;;10.87;9.53;;;;;;;;;;5060215;28;20231;-80
2023/04/21 06:26:55;;;;;;;11.87;9.27;;;;;;;;;;5044684;28;20222;-79
2023/04/21 06:29:22;;;;;;;14.13;9.37;;;;;;;;;;5059333;28;20230;-80
2023/04/21 06:31:47;;;;;;;12.07;8.93;;;;;;;;;;5033425;28;20257;-77
2023/04/21 06:34:16;;;;;;;12.60;9.23;;;;;;;;;;5038433;28;20274;-81
2023/04/21 06:36:44;;;;;;;11.07;9.50;;;;;;;;;;5052200;28;20282;-78
2023/04/21 06:39:10;;;;;;;11.30;9.13;;;;;;;;;;5021869;28;20289;-78
2023/04/21 06:41:36;;;;;;;10.30;9.10;;;;;;;;;;5066918;28;20223;-79
2023/04/21 06:44:01;;;;;;;9.93;8.93;;;;;;;;;;5036493;28;20223;-77
2023/04/21 06:46:32;;;;;;;16.87;9.63;;;;;;;;;;5058250;28;20737;-79
2023/04/21 06:49:03;;;;;;;9.73;8.50;;;;;;;;;;5010501;28;20254;-78
2023/04/21 06:51:29;;;;;;;9.90;8.70;;;;;;;;;;5041844;28;20298;-78
2023/04/21 06:54:00;;;;;;;13.00;9.47;;;;;;;;;;5056108;28;20218;-79
2023/04/21 06:56:29;;;;;;;10.60;9.10;;;;;;;;;;5042295;28;20661;-79
2023/04/21 06:58:59;;;;;;;12.50;9.00;;;;;;;;;;5056708;28;20290;-80
2023/04/21 07:01:38;;;;;;;9.73;8.83;;;;;;;;;;5071448;28;21293;-79
2023/04/21 07:04:05;;;;;;;9.80;8.77;;;;;;;;;;5019933;28;21212;-80
2023/04/21 07:06:32;;;;;;;12.57;9.17;;;;;;;;;;5035477;28;20660;-81
2023/04/21 07:08:58;;;;;;;10.27;8.83;;;;;;;;;;5033787;28;20223;-77
2023/04/21 07:11:27;;;;;;;12.17;8.47;;;;;;;;;;5055460;28;20222;-79
2023/04/21 07:14:06;;;;;;;10.40;8.30;;;;;;;;;;5056876;28;20217;-79
2023/04/21 07:16:35;;;;;;;10.00;8.77;;;;;;;;;;5056941;28;20211;-80
2023/04/21 07:19:00;;;;;;;10.00;8.83;;;;;;;;;;5009333;28;20234;-78
2023/04/21 07:21:26;;;;;;;12.33;8.83;;;;;;;;;;5027866;28;20238;-79
2023/04/21 07:23:54;;;;;;;10.33;8.47;;;;;;;;;;5079293;28;20322;-81
2023/04/21 07:26:23;;;;;;;10.77;8.50;;;;;;;;;;5046140;28;20218;-79
2023/04/21 07:28:51;;;;;;;9.27;8.37;;;;;;;;;;5052312;28;20219;-79
2023/04/21 07:31:18;;;;;;;10.40;8.80;;;;;;;;;;5035432;28;20244;-79
2023/04/21 07:33:47;;;;;;;9.60;8.23;;;;;;;;;;5051171;28;20234;-79
2023/04/21 07:36:14;;;;;;;10.70;8.50;;;;;;;;;;5030777;28;20260;-80
2023/04/21 07:38:42;;;;;;;12.73;8.70;;;;;;;;;;5062376;28;20230;-80
2023/04/21 07:41:12;;;;;;;9.40;8.17;;;;;;;;;;5049636;28;20238;-80
2023/04/21 07:46:30;;;;;;;10.20;8.47;;;;;;;;;;5036796;28;20215;-77
2023/04/21 07:48:59;;;;;;;12.20;8.13;;;;;;;;;;5033703;28;20241;-79
2023/04/21 07:51:27;;;;;;;11.23;8.70;;;;;;;;;;5059688;28;20218;-79
2023/04/21 07:53:56;;;;;;;9.53;8.63;;;;;;;;;;5079541;28;20214;-81
2023/04/21 07:56:22;;;;;;;10.27;8.00;;;;;;;;;;5044570;28;20225;-78
2023/04/21 07:58:51;;;;;;;9.50;8.07;;;;;;;;;;5066477;28;20251;-80
2023/04/21 08:01:22;;;;;;;10.93;8.00;;;;;;;;;;5046964;28;20223;-79
2023/04/21 08:03:50;;;;;;;10.33;8.13;;;;;;;;;;5049146;28;20286;-79
2023/04/21 08:06:19;;;;;;;10.47;7.90;;;;;;;;;;5060882;28;20210;-78
2023/04/21 08:08:52;;;;;;;11.52;8.00;;;;;;;;;;5048075;28;20275;-79
2023/04/21 08:11:39;;;;;;;9.13;8.10;;;;;;;;;;5037773;28;20223;-78
2023/04/21 08:14:05;;;;;;;11.10;7.77;;;;;;;;;;5062382;28;20942;-80
2023/04/21 08:16:31;;;;;;;11.35;7.38;;;;;;;;;;5027990;28;20219;-79
2023/04/21 08:18:59;;;;;;;12.10;7.83;;;;;;;;;;5052030;28;20301;-77
2023/04/21 08:21:32;;;;;;;9.27;7.70;;;;;;;;;;5037050;28;20226;-79
2023/04/21 08:24:04;;;;;;;10.03;7.50;;;;;;;;;;5050458;28;20218;-82
2023/04/21 08:26:33;;;;;;;8.15;7.18;;;;;;;;;;5010961;28;20238;-81
2023/04/21 08:29:17;;;;;;;10.07;7.45;;;;;;;;;;5035085;28;20215;-78
2023/04/21 08:31:45;;;;;;;7.93;7.13;;;;;;;;;;5059955;28;20267;-80
2023/04/21 08:34:10;;;;;;;8.52;7.15;;;;;;;;;;5047693;28;20214;-80
2023/04/21 08:36:38;;;;;;;8.02;7.22;;;;;;;;;;5048852;28;20220;-79
2023/04/21 08:39:07;;;;;;;9.52;7.05;;;;;;;;;;5028405;28;20214;-80
2023/04/21 08:41:40;;;;;;;7.72;6.50;;;;;;;;;;5063831;28;20230;-80
2023/04/21 08:44:05;;;;;;;10.00;7.07;;;;;;;;;;5075844;28;20256;-81
2023/04/21 08:46:34;;;;;;;8.35;6.85;;;;;;;;;;5065281;28;20226;-79
2023/04/21 08:49:17;;;;;;;10.70;6.82;;;;;;;;;;5051474;28;20710;-78
2023/04/21 08:51:48;;;;;;;7.93;6.95;;;;;;;;;;5028703;28;20688;-78
2023/04/21 08:54:16;;;;;;;7.50;6.80;;;;;;;;;;5055379;28;20219;-81
2023/04/21 08:56:48;;;;;;;8.48;6.75;;;;;;;;;;5034155;28;20199;-81
2023/04/21 08:59:21;;;;;;;8.02;6.55;;;;;;;;;;5041433;28;20226;-81
2023/04/21 09:02:18;;;;;;;7.65;6.70;;;;;;;;;;5045532;28;20230;-79
2023/04/21 09:04:59;;;;;;;7.40;6.25;;;;;;;;;;5071598;28;20222;-82
2023/04/21 09:07:40;;;;;;;8.45;6.93;;;;;;;;;;5058732;28;20827;-80
2023/04/21 09:10:12;;;;;;;9.50;6.72;;;;;;;;;;5044516;28;20701;-80
2023/04/21 09:12:41;;;;;;;7.63;6.30;;;;;;;;;;5024725;28;20404;-81
2023/04/21 09:15:09;;;;;;;10.15;6.25;;;;;;;;;;5035464;28;20226;-79
2023/04/21 09:17:37;;;;;;;8.95;6.78;;;;;;;;;;5053490;28;20222;-81
2023/04/21 09:20:18;;;;;;;8.45;6.65;;;;;;;;;;5033462;28;20223;-79
2023/04/21 09:22:43;;;;;;;8.63;6.80;;;;;;;;;;5033565;28;21541;-80
2023/04/21 09:25:09;;;;;;;8.38;6.30;;;;;;;;;;5032873;28;20226;-80
2023/04/21 09:27:39;;;;;;;7.05;6.35;;;;;;;;;;5036323;28;20229;-82
2023/04/21 09:30:06;;;;;;;9.38;6.25;;;;;;;;;;5035591;28;20215;-79
2023/04/21 09:32:40;;;;;;;7.72;6.40;;;;;;;;;;5048530;28;20215;-79
2023/04/21 09:35:10;;;;;;;6.63;5.88;;;;;;;;;;5033095;28;20230;-81
2023/04/21 09:37:38;;;;;;;7.57;6.28;;;;;;;;;;5020289;28;21552;-81
2023/04/21 09:40:06;;;;;;;11.57;6.55;;;;;;;;;;5066550;28;20219;-81
2023/04/21 09:42:34;;;;;;;8.82;6.38;;;;;;;;;;5019066;28;20830;-80
2023/04/21 09:45:08;;;;;;;7.70;6.93;;;;;;;;;;5037632;28;20222;-80
2023/04/21 09:47:41;;;;;;;9.38;5.97;;;;;;;;;;5020303;28;20225;-79
2023/04/21 09:50:12;;;;;;;6.68;5.95;;;;;;;;;;5040313;28;20306;-81
2023/04/21 09:52:41;;;;;;;8.15;6.35;;;;;;;;;;5050018;28;20233;-80
2023/04/21 09:55:23;;;;;;;7.10;6.38;;;;;;;;;;5036154;28;20229;-81
2023/04/21 09:57:49;;;;;;;7.55;6.53;;;;;;;;;;5039682;28;20942;-80
2023/04/21 10:00:16;;;;;;;7.78;6.68;;;;;;;;;;5035058;28;20271;-81
2023/04/21 10:02:51;;;;;;;19.83;7.13;;;;;;;;;;5052742;28;20732;-79
2023/04/21 10:05:19;;;;;;;9.70;7.07;;;;;;;;;;5019735;28;20210;-80
2023/04/21 10:07:49;;;;;;;10.10;6.88;;;;;;;;;;5032833;28;20211;-80
2023/04/21 10:10:22;;;;;;;7.00;6.30;;;;;;;;;;5052236;28;20583;-79
2023/04/21 10:12:51;;;;;;;8.15;6.70;;;;;;;;;;5033987;28;20703;-78
2023/04/21 10:15:30;;;;;;;8.68;6.68;;;;;;;;;;5046617;28;20281;-80
2023/04/21 10:18:15;;;;;;;7.75;6.55;;;;;;;;;;5027870;28;20688;-82
2023/04/21 10:20:56;;;;;;;7.50;6.00;;;;;;;;;;5032160;28;20257;-80
2023/04/21 10:23:45;;;;;;;7.85;6.88;;;;;;;;;;5033857;28;20317;-79
2023/04/21 10:26:18;;;;;;;9.80;7.32;;;;;;;;;;5012796;28;21253;-79
2023/04/21 10:28:43;;;;;;;7.43;6.68;;;;;;;;;;5022168;28;20354;-79
2023/04/21 10:31:22;;;;;;;7.82;6.47;;;;;;;;;;5042593;28;20310;-79
2023/04/21 10:34:14;;;;;;;7.97;6.50;;;;;;;;;;5030715;28;21564;-79
2023/04/21 10:36:45;;;;;;;7.10;6.40;;;;;;;;;;5044473;28;20222;-80
2023/04/21 10:39:26;;;;;;;7.35;6.57;;;;;;;;;;5027911;28;20219;-82
2023/04/21 10:41:59;;;;;;;13.23;6.57;;;;;;;;;;5046139;28;20230;-81
2023/04/21 10:44:27;;;;;;;6.82;6.05;;;;;;;;;;5028298;28;20226;-80
2023/04/21 10:46:56;;;;;;;6.75;6.10;;;;;;;;;;5028754;28;20291;-80
2023/04/21 10:49:34;;;;;;;8.32;5.75;;;;;;;;;;5027383;28;20431;-81
2023/04/21 10:52:01;;;;;;;6.82;5.68;;;;;;;;;;5044413;28;20781;-80
2023/04/21 10:54:30;;;;;;;7.57;5.72;;;;;;;;;;5033656;28;20262;-79
2023/04/21 10:57:00;;;;;;;6.18;5.47;;;;;;;;;;5048783;28;20239;-80
2023/04/21 10:59:26;;;;;;;6.05;5.32;;;;;;;;;;5031550;28;20290;-80
2023/04/21 11:01:51;;;;;;;5.88;5.28;;;;;;;;;;5049046;28;20238;-81
2023/04/21 11:04:20;;;;;;;7.60;5.28;;;;;;;;;;5013195;28;20616;-80
2023/04/21 11:07:12;;;;;;;5.47;4.93;;;;;;;;;;5029954;28;20215;-79
2023/04/21 11:09:40;;;;;;;5.72;5.13;;;;;;;;;;5046596;28;20628;-80
2023/04/21 11:12:16;;;;;;;6.32;4.90;;;;;;;;;;5033207;28;20921;-81
2023/04/21 11:14:46;;;;;;;8.13;5.15;;;;;;;;;;5035561;28;20338;-80
2023/04/21 11:17:18;;;;;;;8.10;4.95;;;;;;;;;;5032770;28;20223;-78
2023/04/21 11:19:50;;;;;;;6.75;4.47;;;;;;;;;;5049565;28;20225;-78
2023/04/21 11:22:17;;;;;;;6.13;5.00;;;;;;;;;;5063939;28;20305;-80
2023/04/21 11:24:50;;;;;;;7.53;4.93;;;;;;;;;;5015871;28;20219;-78
2023/04/21 11:27:16;;;;;;;5.40;4.90;;;;;;;;;;5040399;28;20717;-79
2023/04/21 11:29:47;;;;;;;6.95;5.32;;;;;;;;;;5031949;28;20222;-80
2023/04/21 11:32:15;;;;;;;5.50;5.00;;;;;;;;;;5049080;28;20219;-80
2023/04/21 11:34:45;;;;;;;5.45;4.95;;;;;;;;;;5032645;28;20317;-80
2023/04/21 11:37:17;;;;;;;6.05;5.07;;;;;;;;;;5015474;28;20219;-78
2023/04/21 11:39:45;;;;;;;7.82;4.88;;;;;;;;;;5034001;28;20677;-81
2023/04/21 11:42:14;;;;;;;7.18;4.93;;;;;;;;;;5018778;28;20841;-79
2023/04/21 11:44:40;;;;;;;5.53;4.78;;;;;;;;;;5030222;28;21179;-79
2023/04/21 11:47:23;;;;;;;5.80;4.70;;;;;;;;;;5018331;28;20239;-80
2023/04/21 11:50:00;;;;;;;5.70;4.10;;;;;;;;;;5047361;28;20238;-80
2023/04/21 11:52:32;;;;;;;6.38;4.50;;;;;;;;;;5030635;28;20590;-79
2023/04/21 11:55:04;;;;;;;5.03;4.00;;;;;;;;;;5031959;28;20227;-79
2023/04/21 11:57:31;;;;;;;5.22;4.15;;;;;;;;;;5066460;28;20223;-78
2023/04/21 12:00:14;;;;;;;7.07;4.20;;;;;;;;;;5034866;28;20268;-78
2023/04/21 12:02:39;;;;;;;4.18;3.72;;;;;;;;;;5063162;28;20225;-77
2023/04/21 12:05:05;;;;;;;8.50;4.15;;;;;;;;;;5066583;28;20257;-81
2023/04/21 12:07:35;;;;;;;4.00;3.58;;;;;;;;;;5049530;28;20256;-80
2023/04/21 12:10:01;;;;;;;4.82;3.75;;;;;;;;;;5015474;28;20489;-80
2023/04/21 12:12:27;;;;;;;5.68;4.00;;;;;;;;;;5014779;28;20269;-80
2023/04/21 12:14:55;;;;;;;5.47;3.40;;;;;;;;;;5015107;28;20230;-78
2023/04/21 12:17:20;;;;;;;3.95;3.55;;;;;;;;;;4996826;28;20227;-78
2023/04/21 12:19:46;;;;;;;5.97;3.70;;;;;;;;;;5048303;28;20223;-79
2023/04/21 12:22:17;;;;;;;3.83;3.50;;;;;;;;;;5016779;28;20317;-77
2023/04/21 12:24:42;;;;;;;3.72;3.40;;;;;;;;;;5036707;28;20261;-81
2023/04/21 12:27:10;;;;;;;4.57;3.65;;;;;;;;;;5020033;28;20223;-79
2023/04/21 12:29:37;;;;;;;4.80;3.80;;;;;;;;;;5051652;28;20293;-80
2023/04/21 12:32:09;;;;;;;4.38;3.90;;;;;;;;;;5014108;28;20219;-79
2023/04/21 12:34:35;;;;;;;4.97;3.83;;;;;;;;;;5030120;28;20380;-80
2023/04/21 12:37:00;;;;;;;4.18;3.78;;;;;;;;;;5013886;28;20349;-78
2023/04/21 12:39:29;;;;;;;5.07;3.88;;;;;;;;;;5047865;28;20721;-80
2023/04/21 12:41:55;;;;;;;6.03;4.18;;;;;;;;;;5026670;28;20227;-79
2023/04/21 12:44:23;;;;;;;5.82;4.13;;;;;;;;;;5012964;28;20227;-79
2023/04/21 12:46:48;;;;;;;3.95;3.63;;;;;;;;;;5013951;28;20248;-79
2023/04/21 12:49:16;;;;;;;4.03;3.63;;;;;;;;;;5005054;28;20223;-79
2023/04/21 12:51:43;;;;;;;7.82;3.92;;;;;;;;;;5062054;28;21035;-79
2023/04/21 12:54:10;;;;;;;4.38;3.97;;;;;;;;;;5061364;28;20233;-79
2023/04/21 12:56:41;;;;;;;4.70;4.20;;;;;;;;;;5030611;28;20279;-79
2023/04/21 12:59:08;;;;;;;7.88;3.95;;;;;;;;;;5043440;28;20691;-79
2023/04/21 13:01:37;;;;;;;4.63;3.90;;;;;;;;;;5031193;28;20226;-79
2023/04/21 13:04:03;;;;;;;4.53;4.13;;;;;;;;;;5010693;28;20305;-79
2023/04/21 13:06:34;;;;;;;6.53;4.10;;;;;;;;;;5036688;28;20223;-78
2023/04/21 13:09:02;;;;;;;5.35;3.95;;;;;;;;;;5017942;28;20325;-79
2023/04/21 13:11:27;;;;;;;4.97;4.10;;;;;;;;;;5013987;28;20409;-79
2023/04/21 13:13:55;;;;;;;5.35;4.05;;;;;;;;;;5032831;28;20253;-80
2023/04/21 13:16:24;;;;;;;8.10;4.50;;;;;;;;;;4999752;28;20324;-81
2023/04/21 13:18:49;;;;;;;6.97;5.00;;;;;;;;;;5031724;28;20231;-80
2023/04/21 13:21:15;;;;;;;5.47;4.53;;;;;;;;;;5031808;28;20231;-81
2023/04/21 13:23:40;;;;;;;5.22;4.55;;;;;;;;;;5029911;28;20214;-80
2023/04/21 13:26:06;;;;;;;5.57;4.50;;;;;;;;;;5030826;28;20221;-80
2023/04/21 13:28:34;;;;;;;5.85;4.88;;;;;;;;;;5012940;28;20613;-80
2023/04/21 13:31:02;;;;;;;6.22;4.80;;;;;;;;;;5013545;28;20238;-80
2023/04/21 13:33:33;;;;;;;5.07;4.45;;;;;;;;;;5033692;28;20223;-78
2023/04/21 13:36:02;;;;;;;7.72;4.72;;;;;;;;;;5042730;28;20339;-80
2023/04/21 13:38:29;;;;;;;7.53;4.85;;;;;;;;;;5026495;28;21069;-78
2023/04/21 13:41:00;;;;;;;7.10;4.57;;;;;;;;;;5031478;28;20243;-77
2023/04/21 13:43:25;;;;;;;6.50;5.22;;;;;;;;;;5031407;28;20256;-79
2023/04/21 13:45:54;;;;;;;5.35;4.80;;;;;;;;;;5046550;28;20240;-79
2023/04/21 13:48:20;;;;;;;5.70;4.97;;;;;;;;;;5028314;28;20353;-79
2023/04/21 13:50:45;;;;;;;6.10;4.95;;;;;;;;;;5046120;28;20314;-79
2023/04/21 13:53:13;;;;;;;6.68;5.43;;;;;;;;;;4991671;28;20313;-80
2023/04/21 13:55:39;;;;;;;6.68;5.72;;;;;;;;;;5000999;28;20233;-78
2023/04/21 13:58:10;;;;;;;5.53;5.03;;;;;;;;;;5064754;28;20222;-79
2023/04/21 14:00:38;;;;;;;9.25;5.45;;;;;;;;;;5063375;28;20255;-83
2023/04/21 14:03:04;;;;;;;7.13;5.57;;;;;;;;;;5011348;28;20352;-79
2023/04/21 14:05:30;;;;;;;5.80;5.30;;;;;;;;;;5059935;28;20695;-80
2023/04/21 14:07:58;;;;;;;6.40;5.45;;;;;;;;;;5015138;28;20227;-81
2023/04/21 14:10:23;;;;;;;6.38;5.70;;;;;;;;;;5013311;28;20228;-80
2023/04/21 14:12:53;;;;;;;7.05;5.70;;;;;;;;;;5031085;28;20219;-80
2023/04/21 14:15:19;;;;;;;6.72;5.50;;;;;;;;;;5044523;28;20351;-79
2023/04/21 14:17:44;;;;;;;6.60;5.47;;;;;;;;;;5046775;28;20226;-81
2023/04/21 14:20:10;;;;;;;5.85;5.38;;;;;;;;;;5029834;28;20280;-79
2023/04/21 14:22:36;;;;;;;6.47;5.60;;;;;;;;;;5013168;28;20223;-79
2023/04/21 14:25:02;;;;;;;6.60;5.97;;;;;;;;;;5028080;28;20227;-80
2023/04/21 14:27:31;;;;;;;6.20;5.65;;;;;;;;;;5042867;28;20653;-80
2023/04/21 14:29:59;;;;;;;6.18;5.60;;;;;;;;;;5028258;28;20256;-78
2023/04/21 14:32:27;;;;;;;5.85;5.22;;;;;;;;;;5060681;28;20226;-80
2023/04/21 14:34:57;;;;;;;6.25;5.60;;;;;;;;;;5027839;28;20233;-80
2023/04/21 14:37:26;;;;;;;6.03;5.45;;;;;;;;;;5044823;28;20233;-79
2023/04/21 14:39:51;;;;;;;6.03;5.53;;;;;;;;;;5029374;28;20261;-79
2023/04/21 14:42:19;;;;;;;6.55;5.68;;;;;;;;;;4993842;28;20222;-80
2023/04/21 14:44:44;;;;;;;7.15;5.75;;;;;;;;;;5044529;28;20250;-80
2023/04/21 14:47:14;;;;;;;8.75;5.90;;;;;;;;;;5010615;28;20288;-80